Time;durP1;ratioP1;P1;durP2;ratioP2;P2;SDS_P1;SDS_P2;PMS_P1;PMS_P2;Temp;Humidity;BMP_temperature;BMP_pressure;BME280_temperature;BME280_humidity;BME280_pressure;Samples;Min_cycle;Max_cycle;Signal;HPM_P1;HPM_P2
2020/12/11 00:00:45;;;;;;;915.80;827.70;;;;;;;;;;5067106;28;20190;-66
2020/12/11 00:03:17;;;;;;;618.40;573.63;;;;;;;;;;5061669;28;20456;-66
2020/12/11 00:05:43;;;;;;;863.83;788.13;;;;;;;;;;5061449;28;20198;-66
2020/12/11 00:08:11;;;;;;;638.97;590.97;;;;;;;;;;5060294;28;20383;-66
2020/12/11 00:10:38;;;;;;;725.90;666.87;;;;;;;;;;5061177;28;20194;-66
2020/12/11 00:13:04;;;;;;;862.90;789.40;;;;;;;;;;5061029;28;20194;-66
2020/12/11 00:15:33;;;;;;;786.77;719.43;;;;;;;;;;5060833;28;20190;-66
2020/12/11 00:17:59;;;;;;;736.57;677.20;;;;;;;;;;5060963;28;20186;-66
2020/12/11 00:20:26;;;;;;;701.10;645.77;;;;;;;;;;5060967;28;20212;-66
2020/12/11 00:22:52;;;;;;;752.27;691.20;;;;;;;;;;5042048;28;20497;-65
2020/12/11 00:25:20;;;;;;;774.27;708.63;;;;;;;;;;5059986;28;20189;-66
2020/12/11 00:27:47;;;;;;;770.47;709.60;;;;;;;;;;5058439;28;20754;-66
2020/12/11 00:30:15;;;;;;;753.53;695.73;;;;;;;;;;5060641;28;20595;-66
2020/12/11 00:32:44;;;;;;;710.73;657.87;;;;;;;;;;5060567;28;20205;-65
2020/12/11 00:35:10;;;;;;;841.57;765.67;;;;;;;;;;5060846;28;20559;-66
2020/12/11 00:37:37;;;;;;;690.23;638.13;;;;;;;;;;5043169;28;20281;-66
2020/12/11 00:40:04;;;;;;;796.47;731.07;;;;;;;;;;5060210;28;21061;-66
2020/12/11 00:42:32;;;;;;;849.90;773.37;;;;;;;;;;5063833;28;20300;-65
2020/12/11 00:44:59;;;;;;;778.00;714.33;;;;;;;;;;5060286;28;20221;-66
2020/12/11 00:47:25;;;;;;;891.37;815.90;;;;;;;;;;5060135;28;20193;-66
2020/12/11 00:49:54;;;;;;;764.83;703.97;;;;;;;;;;5060679;28;20719;-66
2020/12/11 00:52:21;;;;;;;795.87;731.10;;;;;;;;;;5059482;28;20189;-66
2020/12/11 00:54:48;;;;;;;664.13;609.07;;;;;;;;;;5058897;28;20221;-65
2020/12/11 00:57:14;;;;;;;743.40;690.00;;;;;;;;;;5060001;28;20229;-66
2020/12/11 00:59:41;;;;;;;739.87;680.90;;;;;;;;;;5060523;28;20654;-65
2020/12/11 01:02:08;;;;;;;822.20;755.80;;;;;;;;;;5060174;28;20201;-66
2020/12/11 01:04:37;;;;;;;766.17;706.80;;;;;;;;;;5059977;28;20193;-66
2020/12/11 01:07:04;;;;;;;855.07;782.93;;;;;;;;;;5061868;28;20418;-65
2020/12/11 01:09:30;;;;;;;734.17;674.20;;;;;;;;;;5058987;28;20601;-66
2020/12/11 01:11:57;;;;;;;858.17;785.30;;;;;;;;;;5059529;28;20217;-66
2020/12/11 01:14:23;;;;;;;731.23;670.60;;;;;;;;;;5060090;28;20484;-66
2020/12/11 01:16:50;;;;;;;858.37;781.00;;;;;;;;;;5059850;28;20560;-65
2020/12/11 01:19:17;;;;;;;697.70;642.97;;;;;;;;;;5060183;28;20200;-66
2020/12/11 01:21:44;;;;;;;594.73;550.07;;;;;;;;;;5058543;28;20331;-66
2020/12/11 01:24:11;;;;;;;705.17;648.07;;;;;;;;;;5041011;28;20200;-65
2020/12/11 01:26:38;;;;;;;684.33;624.97;;;;;;;;;;5060290;28;20660;-66
2020/12/11 01:29:04;;;;;;;792.60;724.00;;;;;;;;;;5063284;28;20398;-66
2020/12/11 01:31:31;;;;;;;887.60;802.97;;;;;;;;;;5059785;28;20274;-66
2020/12/11 01:33:58;;;;;;;648.50;596.90;;;;;;;;;;5059516;28;20194;-66
2020/12/11 01:36:25;;;;;;;859.33;775.63;;;;;;;;;;5052507;28;20728;-66
2020/12/11 01:38:52;;;;;;;765.87;700.67;;;;;;;;;;5058822;28;20670;-66
2020/12/11 01:41:19;;;;;;;851.23;773.43;;;;;;;;;;5059483;28;20284;-66
2020/12/11 01:43:45;;;;;;;808.17;740.90;;;;;;;;;;5059598;28;20293;-65
2020/12/11 01:46:16;;;;;;;909.57;820.03;;;;;;;;;;5062511;28;20192;-66
2020/12/11 01:48:44;;;;;;;776.27;712.80;;;;;;;;;;5059394;28;20308;-65
2020/12/11 01:51:11;;;;;;;835.20;759.60;;;;;;;;;;5059701;28;20198;-65
2020/12/11 01:53:38;;;;;;;827.53;762.43;;;;;;;;;;5059052;28;20193;-66
2020/12/11 01:56:06;;;;;;;837.00;762.40;;;;;;;;;;5059344;28;20273;-65
2020/12/11 01:58:35;;;;;;;905.60;814.93;;;;;;;;;;5059949;28;20327;-66
2020/12/11 02:01:02;;;;;;;924.73;840.60;;;;;;;;;;5066409;28;20322;-65
2020/12/11 02:03:29;;;;;;;860.40;788.57;;;;;;;;;;5067709;28;20177;-65
2020/12/11 02:05:56;;;;;;;860.43;786.17;;;;;;;;;;5060438;28;20190;-66
2020/12/11 02:08:23;;;;;;;864.00;786.43;;;;;;;;;;5060970;28;20190;-66
2020/12/11 02:10:49;;;;;;;902.47;820.03;;;;;;;;;;5060262;28;20248;-66
2020/12/11 02:13:19;;;;;;;899.67;821.33;;;;;;;;;;5059096;28;20186;-66
2020/12/11 02:15:48;;;;;;;908.67;816.23;;;;;;;;;;5060015;28;20846;-66
2020/12/11 02:18:15;;;;;;;917.40;829.00;;;;;;;;;;5059226;28;20194;-66
2020/12/11 02:20:41;;;;;;;837.30;762.23;;;;;;;;;;5059154;28;20549;-66
2020/12/11 02:23:08;;;;;;;929.23;843.90;;;;;;;;;;5059697;28;20284;-67
2020/12/11 02:25:40;;;;;;;865.80;787.00;;;;;;;;;;5059628;28;20198;-66
2020/12/11 02:28:06;;;;;;;905.63;821.30;;;;;;;;;;5059918;28;20278;-65
2020/12/11 02:30:33;;;;;;;841.97;770.93;;;;;;;;;;5059899;28;20707;-66
2020/12/11 02:33:00;;;;;;;880.03;796.93;;;;;;;;;;5059309;28;20186;-66
2020/12/11 02:35:26;;;;;;;808.57;729.17;;;;;;;;;;5058008;28;20193;-66
2020/12/11 02:37:53;;;;;;;962.03;864.27;;;;;;;;;;5054675;28;20178;-66
2020/12/11 02:40:20;;;;;;;711.63;645.90;;;;;;;;;;5054584;28;20186;-67
2020/12/11 02:42:46;;;;;;;926.87;842.80;;;;;;;;;;5051900;28;20180;-66
2020/12/11 02:45:13;;;;;;;915.50;823.07;;;;;;;;;;5053600;28;20189;-67
2020/12/11 02:47:40;;;;;;;819.50;748.80;;;;;;;;;;5051774;28;20264;-66
2020/12/11 02:50:06;;;;;;;955.97;863.03;;;;;;;;;;5048690;28;20229;-66
2020/12/11 02:52:34;;;;;;;902.30;821.33;;;;;;;;;;5053030;28;20186;-65
2020/12/11 02:55:01;;;;;;;959.73;867.10;;;;;;;;;;5053197;28;20244;-65
2020/12/11 02:57:27;;;;;;;935.43;848.40;;;;;;;;;;5053659;28;20189;-65
2020/12/11 02:59:54;;;;;;;981.87;850.80;;;;;;;;;;5052935;28;20183;-66
2020/12/11 03:02:21;;;;;;;935.77;838.63;;;;;;;;;;5053479;28;20183;-65
2020/12/11 03:04:47;;;;;;;834.57;761.57;;;;;;;;;;5053833;28;20201;-64
2020/12/11 03:07:14;;;;;;;908.47;823.40;;;;;;;;;;5051258;28;20708;-65
2020/12/11 03:09:41;;;;;;;924.30;829.53;;;;;;;;;;5053108;28;20248;-65
2020/12/11 03:12:08;;;;;;;928.63;832.93;;;;;;;;;;5055713;28;20194;-65
2020/12/11 03:14:36;;;;;;;690.97;633.80;;;;;;;;;;5058861;28;20196;-65
2020/12/11 03:17:03;;;;;;;762.27;698.63;;;;;;;;;;5063124;28;20182;-66
2020/12/11 03:19:30;;;;;;;810.20;740.77;;;;;;;;;;5063789;28;20182;-65
2020/12/11 03:21:58;;;;;;;885.93;806.10;;;;;;;;;;5063278;28;20186;-65
2020/12/11 03:24:27;;;;;;;781.70;713.47;;;;;;;;;;5062708;28;20182;-64
2020/12/11 03:26:54;;;;;;;789.23;726.87;;;;;;;;;;5060149;28;20188;-65
2020/12/11 03:29:23;;;;;;;863.97;794.00;;;;;;;;;;5055831;28;20308;-67
2020/12/11 03:31:50;;;;;;;891.07;814.67;;;;;;;;;;5061472;28;20197;-65
2020/12/11 03:34:16;;;;;;;795.30;726.23;;;;;;;;;;5062162;28;20190;-65
2020/12/11 14:43:31;;;;;;;665.70;621.57;;;;;;;;;;5061456;27;20627;-59
2020/12/11 14:46:01;;;;;;;754.50;698.70;;;;;;;;;;5067319;28;20598;-59
2020/12/11 14:48:29;;;;;;;619.67;578.73;;;;;;;;;;5067492;28;20222;-58
2020/12/11 14:50:55;;;;;;;637.80;592.30;;;;;;;;;;5065542;28;20285;-58
2020/12/11 14:53:22;;;;;;;494.67;462.30;;;;;;;;;;5069295;28;20215;-58
2020/12/11 14:55:49;;;;;;;486.57;455.73;;;;;;;;;;5066860;28;20733;-57
2020/12/11 14:58:16;;;;;;;429.77;404.63;;;;;;;;;;5072074;28;20863;-58
2020/12/11 15:00:43;;;;;;;428.60;402.70;;;;;;;;;;5071341;28;20588;-58
2020/12/11 15:03:10;;;;;;;580.30;540.30;;;;;;;;;;5070880;28;20240;-58
2020/12/11 15:05:37;;;;;;;678.87;630.97;;;;;;;;;;5067530;28;20598;-58
2020/12/11 15:08:03;;;;;;;764.83;706.87;;;;;;;;;;5068684;28;20232;-59
2020/12/11 15:10:30;;;;;;;907.47;826.43;;;;;;;;;;5069168;28;20210;-59
2020/12/11 15:12:56;;;;;;;840.50;771.17;;;;;;;;;;5066573;28;20682;-59
2020/12/11 15:15:23;;;;;;;924.47;842.37;;;;;;;;;;5066933;28;20186;-59
2020/12/11 15:17:49;;;;;;;901.27;819.53;;;;;;;;;;5059737;28;20188;-58
2020/12/11 15:20:16;;;;;;;890.47;810.90;;;;;;;;;;5065872;28;20756;-59
2020/12/11 15:22:43;;;;;;;879.03;792.23;;;;;;;;;;5070290;28;20290;-59
2020/12/11 15:25:09;;;;;;;779.77;713.23;;;;;;;;;;5069176;28;20187;-58
2020/12/11 15:27:36;;;;;;;767.27;701.27;;;;;;;;;;5069272;28;20204;-58
2020/12/11 15:30:04;;;;;;;749.00;684.67;;;;;;;;;;5067166;28;20610;-58
2020/12/11 15:32:31;;;;;;;1049.00;869.20;;;;;;;;;;5066973;28;20297;-58
2020/12/11 15:34:57;;;;;;;891.20;797.33;;;;;;;;;;5058972;28;20220;-58
2020/12/11 15:37:24;;;;;;;875.83;789.07;;;;;;;;;;5066081;28;20382;-58
2020/12/11 15:39:51;;;;;;;815.00;739.77;;;;;;;;;;5061398;28;20182;-59
2020/12/11 15:42:17;;;;;;;903.13;810.33;;;;;;;;;;5067187;28;20236;-58
2020/12/11 15:44:44;;;;;;;880.53;793.73;;;;;;;;;;5068169;28;20180;-58
2020/12/11 15:47:11;;;;;;;885.57;797.63;;;;;;;;;;5060081;28;20281;-63
2020/12/11 15:49:40;;;;;;;890.23;797.37;;;;;;;;;;5054782;28;20286;-59
2020/12/11 15:52:07;;;;;;;857.50;772.33;;;;;;;;;;5068983;28;20195;-60
2020/12/11 15:54:34;;;;;;;868.20;780.17;;;;;;;;;;5052821;28;20892;-59
2020/12/11 15:57:00;;;;;;;865.27;773.73;;;;;;;;;;5052143;28;20232;-58
2020/12/11 15:59:27;;;;;;;932.67;828.20;;;;;;;;;;5052048;28;20242;-59
2020/12/11 16:01:53;;;;;;;907.93;816.33;;;;;;;;;;5052920;28;20208;-60
2020/12/11 16:04:20;;;;;;;903.53;811.07;;;;;;;;;;5046719;28;20188;-60
2020/12/11 16:06:46;;;;;;;1006.33;877.40;;;;;;;;;;5056053;28;20181;-67
2020/12/11 16:09:13;;;;;;;911.03;822.90;;;;;;;;;;5048947;28;20187;-67
2020/12/11 16:11:40;;;;;;;912.03;824.27;;;;;;;;;;5052147;28;20184;-65
2020/12/11 16:14:06;;;;;;;992.10;884.33;;;;;;;;;;5051842;28;20897;-75
2020/12/11 16:16:33;;;;;;;944.13;847.33;;;;;;;;;;5049110;28;20290;-81
2020/12/11 16:18:59;;;;;;;1042.17;940.37;;;;;;;;;;5046828;28;20252;-73
2020/12/11 16:21:26;;;;;;;1037.33;933.60;;;;;;;;;;5041698;28;20217;-77
2020/12/11 16:23:53;;;;;;;1028.73;932.93;;;;;;;;;;5054408;28;20698;-72
2020/12/11 16:26:19;;;;;;;974.70;885.70;;;;;;;;;;5049552;28;20948;-72
2020/12/11 16:28:46;;;;;;;931.33;854.67;;;;;;;;;;5052230;28;20858;-72
2020/12/11 16:31:15;;;;;;;968.73;883.17;;;;;;;;;;5052665;28;20182;-71
2020/12/11 16:33:44;;;;;;;921.50;839.23;;;;;;;;;;5049723;28;20186;-71
2020/12/11 16:36:14;;;;;;;953.40;870.27;;;;;;;;;;5048437;28;20913;-72
2020/12/11 16:38:40;;;;;;;977.87;889.83;;;;;;;;;;5049269;28;20588;-73
2020/12/11 16:41:07;;;;;;;1081.33;967.93;;;;;;;;;;5046953;28;20417;-75
2020/12/11 16:43:40;;;;;;;990.80;896.83;;;;;;;;;;5044180;28;20230;-75
2020/12/11 16:46:11;;;;;;;1012.43;914.80;;;;;;;;;;5039580;28;20189;-76
2020/12/11 16:48:41;;;;;;;1118.00;984.37;;;;;;;;;;5044661;28;20186;-75
2020/12/11 16:51:18;;;;;;;973.67;878.13;;;;;;;;;;5052732;28;20188;-75
2020/12/11 16:53:44;;;;;;;1077.67;960.70;;;;;;;;;;5055622;28;20189;-76
2020/12/11 16:56:11;;;;;;;1004.90;906.37;;;;;;;;;;5048025;28;20197;-75
2020/12/11 16:58:40;;;;;;;944.53;857.03;;;;;;;;;;5049075;28;20864;-75
2020/12/11 17:01:07;;;;;;;956.30;867.13;;;;;;;;;;5050370;28;20217;-68
2020/12/11 17:04:30;;;;;;;968.83;879.10;;;;;;;;;;5044690;28;20543;-68
2020/12/11 17:08:58;;;;;;;1030.03;928.33;;;;;;;;;;5047360;28;20603;-70
2020/12/11 17:11:25;;;;;;;873.20;801.57;;;;;;;;;;5054324;28;20195;-69
2020/12/11 17:13:51;;;;;;;941.60;858.03;;;;;;;;;;5057161;28;20197;-69
2020/12/11 17:16:29;;;;;;;920.27;837.87;;;;;;;;;;5054305;28;20821;-70
2020/12/11 17:18:57;;;;;;;927.77;847.90;;;;;;;;;;5053411;28;20252;-70
2020/12/11 17:27:20;;;;;;;1021.17;916.83;;;;;;;;;;5034125;28;20182;-64
2020/12/11 17:33:04;;;;;;;865.17;793.57;;;;;;;;;;5033465;28;20688;-62
2020/12/11 17:38:34;;;;;;;915.90;839.73;;;;;;;;;;5033406;28;20194;-62
2020/12/11 17:44:04;;;;;;;941.33;857.53;;;;;;;;;;5034142;28;20256;-62
2020/12/11 17:49:34;;;;;;;910.13;826.73;;;;;;;;;;5034061;28;20233;-62
2020/12/11 17:55:04;;;;;;;810.53;746.47;;;;;;;;;;5032917;28;20187;-62
2020/12/11 18:00:34;;;;;;;883.07;806.20;;;;;;;;;;5033501;28;20195;-61
2020/12/11 18:06:04;;;;;;;899.97;827.17;;;;;;;;;;5033252;28;20554;-65
2020/12/11 18:11:35;;;;;;;837.30;770.20;;;;;;;;;;5038311;28;20180;-67
2020/12/11 18:17:05;;;;;;;866.80;797.13;;;;;;;;;;5028801;28;20246;-67
2020/12/11 18:22:38;;;;;;;848.40;775.97;;;;;;;;;;5045163;28;20238;-66
2020/12/11 18:28:10;;;;;;;826.07;755.97;;;;;;;;;;5040800;28;20713;-63
2020/12/11 18:33:21;;;;;;;721.90;665.70;;;;;;;;;;5012529;28;20260;-77
2020/12/11 18:35:47;;;;;;;764.53;708.23;;;;;;;;;;5012117;28;20172;-77
2020/12/11 18:38:14;;;;;;;852.40;781.67;;;;;;;;;;5016107;28;20191;-77
2020/12/11 18:40:40;;;;;;;879.07;802.63;;;;;;;;;;5016435;28;20182;-77
2020/12/11 18:43:07;;;;;;;933.77;850.47;;;;;;;;;;5017549;28;20307;-77
2020/12/11 18:45:33;;;;;;;854.67;782.80;;;;;;;;;;5014693;28;20187;-77
2020/12/11 18:48:00;;;;;;;819.77;752.50;;;;;;;;;;5000787;28;20188;-76
2020/12/11 18:50:26;;;;;;;800.13;739.70;;;;;;;;;;5020508;28;20711;-77
2020/12/11 18:52:53;;;;;;;717.20;666.17;;;;;;;;;;5017942;28;21007;-77
2020/12/11 18:55:25;;;;;;;814.60;748.63;;;;;;;;;;5017268;28;20525;-77
2020/12/11 18:57:51;;;;;;;688.67;641.10;;;;;;;;;;5017996;28;20927;-76
2020/12/11 19:00:18;;;;;;;766.13;706.37;;;;;;;;;;5018101;28;20198;-76
2020/12/11 19:02:45;;;;;;;677.43;630.93;;;;;;;;;;5016804;28;20749;-76
2020/12/11 19:05:11;;;;;;;814.37;748.50;;;;;;;;;;5017877;28;20191;-76
2020/12/11 19:07:38;;;;;;;802.83;740.93;;;;;;;;;;5017331;28;20185;-76
2020/12/11 19:10:05;;;;;;;719.13;668.63;;;;;;;;;;5017517;28;20189;-76
2020/12/11 19:12:31;;;;;;;735.97;681.50;;;;;;;;;;5017259;28;20825;-76
2020/12/11 19:14:58;;;;;;;816.37;750.77;;;;;;;;;;5018052;28;20202;-77
2020/12/11 19:17:24;;;;;;;760.30;706.17;;;;;;;;;;5014975;28;20247;-77
2020/12/11 19:19:51;;;;;;;803.97;742.30;;;;;;;;;;5018420;28;20196;-77
2020/12/11 19:22:18;;;;;;;692.40;641.10;;;;;;;;;;5012822;28;20226;-77
2020/12/11 19:24:44;;;;;;;702.00;651.77;;;;;;;;;;5017556;28;20275;-78
2020/12/11 19:27:11;;;;;;;740.33;684.93;;;;;;;;;;5016002;28;20189;-78
2020/12/11 19:29:37;;;;;;;647.60;603.23;;;;;;;;;;5021413;28;20240;-76
2020/12/11 19:32:04;;;;;;;794.47;730.30;;;;;;;;;;5021373;28;20254;-77
2020/12/11 19:34:31;;;;;;;742.70;683.27;;;;;;;;;;5021560;28;20192;-77
2020/12/11 19:36:57;;;;;;;739.60;680.53;;;;;;;;;;5020824;28;20580;-77
2020/12/11 19:39:24;;;;;;;675.77;626.23;;;;;;;;;;5021290;28;20688;-77
2020/12/11 19:41:50;;;;;;;779.63;717.30;;;;;;;;;;5021390;28;20281;-78
2020/12/11 19:44:17;;;;;;;709.93;658.33;;;;;;;;;;5021617;28;20251;-76
2020/12/11 19:46:43;;;;;;;687.67;637.20;;;;;;;;;;5020847;28;20239;-77
2020/12/11 19:49:12;;;;;;;708.90;658.03;;;;;;;;;;5021807;28;20175;-77
2020/12/11 19:51:39;;;;;;;716.50;664.40;;;;;;;;;;5021458;28;20274;-77
2020/12/11 19:54:05;;;;;;;846.07;774.67;;;;;;;;;;5020308;28;20192;-77
2020/12/11 19:56:32;;;;;;;778.43;719.73;;;;;;;;;;5020820;28;20203;-76
2020/12/11 19:58:58;;;;;;;786.10;726.97;;;;;;;;;;5021266;28;20258;-77
2020/12/11 20:01:25;;;;;;;784.67;725.60;;;;;;;;;;5020529;28;20180;-78
2020/12/11 20:03:52;;;;;;;860.93;788.67;;;;;;;;;;5021344;28;20943;-77
2020/12/11 20:06:30;;;;;;;956.17;867.53;;;;;;;;;;5021486;28;20180;-77
2020/12/11 20:11:43;;;;;;;1106.47;961.40;;;;;;;;;;5017433;28;20273;-77
2020/12/11 20:14:10;;;;;;;938.87;855.47;;;;;;;;;;5021360;28;20202;-77
2020/12/11 20:16:41;;;;;;;916.97;835.60;;;;;;;;;;5020770;28;20206;-78
2020/12/11 20:19:08;;;;;;;1030.90;930.53;;;;;;;;;;5021289;28;20202;-78
2020/12/11 20:21:42;;;;;;;890.13;808.23;;;;;;;;;;5020208;28;20183;-78
2020/12/11 20:24:11;;;;;;;977.67;872.87;;;;;;;;;;5014479;28;20190;-74
2020/12/11 20:26:37;;;;;;;894.37;810.33;;;;;;;;;;5017253;28;20664;-75
2020/12/11 20:29:04;;;;;;;949.73;853.27;;;;;;;;;;5019744;28;20623;-76
2020/12/11 20:37:23;;;;;;;988.50;883.20;;;;;;;;;;5058145;28;20228;-63
2020/12/11 20:42:53;;;;;;;843.10;765.23;;;;;;;;;;5057040;28;20237;-64
2020/12/11 20:48:30;;;;;;;940.43;850.40;;;;;;;;;;5057568;28;20228;-65
2020/12/11 20:54:03;;;;;;;1066.27;910.63;;;;;;;;;;5057559;28;20209;-65
2020/12/11 20:59:35;;;;;;;1064.10;947.43;;;;;;;;;;5056854;28;20186;-65
2020/12/11 21:05:05;;;;;;;1030.07;919.43;;;;;;;;;;5058567;28;20549;-65
2020/12/11 21:10:35;;;;;;;1009.80;915.33;;;;;;;;;;5056824;28;20783;-65
2020/12/11 21:16:05;;;;;;;1048.83;940.63;;;;;;;;;;5056557;28;20202;-65
2020/12/11 21:21:35;;;;;;;964.20;871.40;;;;;;;;;;5055785;28;20277;-65
2020/12/11 21:27:09;;;;;;;982.13;884.27;;;;;;;;;;5055700;28;20650;-65
2020/12/11 21:32:45;;;;;;;927.00;847.70;;;;;;;;;;5054492;28;20235;-65
2020/12/11 21:38:15;;;;;;;870.50;787.43;;;;;;;;;;5055189;28;20547;-65
2020/12/11 21:43:45;;;;;;;801.63;730.57;;;;;;;;;;5054826;28;20221;-65
2020/12/11 21:49:17;;;;;;;819.57;746.17;;;;;;;;;;5054789;28;20549;-65
2020/12/11 21:54:47;;;;;;;864.57;785.90;;;;;;;;;;5054712;28;20178;-65
2020/12/11 22:00:18;;;;;;;883.07;799.63;;;;;;;;;;5054535;28;20185;-65
2020/12/11 22:05:55;;;;;;;765.37;699.63;;;;;;;;;;5054328;28;20227;-64
2020/12/11 22:11:25;;;;;;;860.07;774.63;;;;;;;;;;5054325;28;20664;-65
2020/12/11 22:16:55;;;;;;;688.93;629.83;;;;;;;;;;5054131;28;20280;-65
2020/12/11 22:22:25;;;;;;;1182.13;984.40;;;;;;;;;;5054647;28;20181;-65
2020/12/11 22:27:55;;;;;;;735.90;669.50;;;;;;;;;;5055784;28;20262;-65
2020/12/11 22:33:25;;;;;;;869.77;787.23;;;;;;;;;;5028423;28;20228;-64
2020/12/11 22:39:05;;;;;;;913.60;826.73;;;;;;;;;;5054152;28;20196;-66
2020/12/11 22:44:35;;;;;;;896.70;810.50;;;;;;;;;;5053734;28;20274;-67
2020/12/11 22:50:05;;;;;;;973.13;875.07;;;;;;;;;;5054420;28;20596;-66
2020/12/11 22:55:34;;;;;;;1015.87;899.80;;;;;;;;;;5053920;28;20543;-66
2020/12/11 23:01:04;;;;;;;928.60;841.03;;;;;;;;;;5053685;28;20179;-66
